Time;durP1;ratioP1;P1;durP2;ratioP2;P2;SDS_P1;SDS_P2;PMS_P1;PMS_P2;Temp;Humidity;BMP_temperature;BMP_pressure;BME280_temperature;BME280_humidity;BME280_pressure;Samples;Min_cycle;Max_cycle;Signal;HPM_P1;HPM_P2
2023/09/15 00:01:27;;;;;;;5.57;4.97;;;17.00;28.10;;;;;;5093523;28;20160;-74
2023/09/15 00:03:52;;;;;;;5.93;5.33;;;17.00;29.90;;;;;;5093518;28;20176;-74
2023/09/15 00:06:18;;;;;;;5.03;4.50;;;16.90;32.00;;;;;;5093492;28;20164;-73
2023/09/15 00:08:44;;;;;;;5.30;4.80;;;16.90;37.00;;;;;;5093497;28;20660;-74
2023/09/15 00:11:16;;;;;;;6.03;5.20;;;16.80;35.90;;;;;;5093260;28;20164;-74
2023/09/15 00:13:42;;;;;;;5.80;5.20;;;16.80;40.60;;;;;;5093025;28;20229;-74
2023/09/15 00:16:08;;;;;;;5.47;4.97;;;16.70;40.80;;;;;;5093268;28;20619;-74
2023/09/15 00:18:33;;;;;;;7.80;5.40;;;16.80;39.30;;;;;;5093298;28;20665;-74
2023/09/15 00:20:59;;;;;;;7.67;6.00;;;16.80;41.20;;;;;;5093345;28;20176;-73
2023/09/15 00:23:24;;;;;;;6.57;5.47;;;16.70;42.90;;;;;;5093265;28;20172;-73
2023/09/15 00:25:54;;;;;;;6.33;5.73;;;16.80;41.70;;;;;;5093276;28;20168;-73
2023/09/15 00:28:20;;;;;;;8.90;7.17;;;16.70;43.00;;;;;;5093067;28;20175;-74
2023/09/15 00:30:49;;;;;;;7.83;6.30;;;16.60;47.20;;;;;;5093106;28;20677;-73
2023/09/15 00:33:15;;;;;;;6.80;6.20;;;16.50;50.60;;;;;;5093289;28;20223;-73
2023/09/15 00:35:41;;;;;;;6.10;5.50;;;16.40;52.70;;;;;;5093095;28;20180;-73
2023/09/15 00:38:07;;;;;;;7.50;5.43;;;16.40;58.40;;;;;;5093104;28;20258;-73
2023/09/15 00:40:32;;;;;;;5.17;4.60;;;16.20;65.70;;;;;;5093065;28;20172;-73
2023/09/15 00:42:58;;;;;;;6.47;5.43;;;16.00;80.60;;;;;;5092773;28;20168;-73
2023/09/15 00:45:25;;;;;;;7.83;6.40;;;15.90;91.90;;;;;;5091768;28;20208;-73
2023/09/15 00:47:55;;;;;;;5.40;4.90;;;15.80;95.20;;;;;;5092928;28;20164;-73
2023/09/15 00:50:25;;;;;;;6.37;4.70;;;15.70;98.30;;;;;;5093115;28;20176;-74
2023/09/15 00:52:57;;;;;;;6.50;5.90;;;15.60;99.90;;;;;;5093068;28;20168;-74
2023/09/15 00:55:24;;;;;;;6.07;5.27;;;15.60;99.90;;;;;;5093062;28;20176;-73
2023/09/15 00:57:51;;;;;;;8.07;5.53;;;15.50;99.90;;;;;;5092490;28;20176;-74
2023/09/15 01:00:18;;;;;;;7.10;5.23;;;15.50;99.90;;;;;;5093041;28;20168;-74
2023/09/15 01:02:44;;;;;;;5.30;4.83;;;15.60;99.90;;;;;;5092976;28;20311;-74
2023/09/15 01:05:12;;;;;;;5.03;4.63;;;15.60;99.90;;;;;;5092797;28;20176;-74
2023/09/15 01:07:38;;;;;;;9.03;5.03;;;15.50;99.90;;;;;;5092892;28;20183;-74
2023/09/15 01:10:07;;;;;;;5.77;5.17;;;15.50;99.90;;;;;;5092777;28;20267;-74
2023/09/15 01:12:33;;;;;;;5.90;5.17;;;15.40;99.90;;;;;;5092398;28;20255;-74
2023/09/15 01:15:01;;;;;;;6.30;5.10;;;15.40;99.90;;;;;;5092737;28;20294;-73
2023/09/15 01:17:35;;;;;;;6.20;5.23;;;15.30;99.90;;;;;;5092804;28;20187;-74
2023/09/15 01:20:13;;;;;;;7.17;4.83;;;15.30;99.90;;;;;;5092531;28;20276;-73
2023/09/15 01:23:03;;;;;;;5.80;5.30;;;15.20;99.90;;;;;;5094307;28;20237;-74
2023/09/15 01:25:59;;;;;;;7.90;5.40;;;15.10;99.90;;;;;;5096322;28;20641;-73
2023/09/15 01:28:50;;;;;;;6.10;4.93;;;15.00;99.90;;;;;;5096322;28;20255;-73
2023/09/15 01:31:18;;;;;;;7.27;5.40;;;15.00;99.90;;;;;;5096185;28;20180;-73
2023/09/15 01:33:45;;;;;;;7.47;5.07;;;14.90;99.90;;;;;;5096037;28;20272;-73
2023/09/15 01:36:10;;;;;;;7.03;5.30;;;14.80;99.90;;;;;;5096203;28;20195;-73
2023/09/15 01:38:36;;;;;;;6.17;5.23;;;14.80;99.90;;;;;;5096137;28;20623;-75
2023/09/15 01:41:01;;;;;;;6.50;5.77;;;14.80;99.90;;;;;;5095757;28;20252;-73
2023/09/15 01:43:27;;;;;;;6.10;5.50;;;14.80;99.90;;;;;;5095916;28;20175;-75
2023/09/15 01:45:52;;;;;;;5.70;5.30;;;14.70;99.90;;;;;;5095878;28;20274;-75
2023/09/15 01:48:19;;;;;;;8.97;6.20;;;14.70;99.90;;;;;;5094581;28;20179;-75
2023/09/15 01:50:47;;;;;;;7.17;5.80;;;14.70;99.90;;;;;;5095956;28;20175;-73
2023/09/15 01:53:13;;;;;;;14.77;6.87;;;14.70;99.90;;;;;;5096017;28;20223;-73
2023/09/15 01:55:39;;;;;;;19.73;8.40;;;14.70;99.90;;;;;;5095379;28;20215;-73
2023/09/15 01:58:05;;;;;;;11.20;8.90;;;14.70;99.90;;;;;;5095672;28;20180;-73
2023/09/15 02:00:37;;;;;;;6.67;6.00;;;14.60;99.90;;;;;;5095795;28;20167;-73
2023/09/15 02:03:04;;;;;;;6.57;5.83;;;14.60;99.90;;;;;;5095590;28;20522;-73
2023/09/15 02:05:30;;;;;;;6.53;5.90;;;14.60;99.90;;;;;;5095609;28;20172;-74
2023/09/15 02:07:56;;;;;;;8.53;6.20;;;14.70;99.90;;;;;;5095528;28;20168;-74
2023/09/15 02:10:22;;;;;;;7.07;5.77;;;14.60;99.90;;;;;;5095249;28;20176;-74
2023/09/15 02:12:48;;;;;;;8.20;5.93;;;14.60;99.90;;;;;;5095311;28;20627;-73
2023/09/15 02:15:14;;;;;;;8.57;6.13;;;14.60;99.90;;;;;;5095329;28;20262;-73
2023/09/15 02:17:40;;;;;;;5.57;5.07;;;14.60;99.90;;;;;;5094133;28;20271;-73
2023/09/15 02:20:12;;;;;;;9.23;6.20;;;14.50;99.90;;;;;;5095061;28;20310;-73
2023/09/15 02:22:46;;;;;;;9.27;5.50;;;14.50;99.90;;;;;;5095381;28;20254;-73
2023/09/15 02:25:12;;;;;;;6.83;5.80;;;14.50;99.90;;;;;;5094770;28;20577;-73
2023/09/15 02:27:38;;;;;;;7.27;5.70;;;14.50;99.90;;;;;;5093812;28;20215;-73
2023/09/15 02:30:08;;;;;;;14.70;6.33;;;14.40;99.90;;;;;;5095131;28;20218;-74
2023/09/15 02:32:33;;;;;;;7.03;6.13;;;14.50;99.90;;;;;;5094093;28;20183;-74
2023/09/15 02:34:59;;;;;;;8.37;5.97;;;14.40;99.90;;;;;;5094784;28;20261;-74
2023/09/15 02:37:24;;;;;;;6.60;5.97;;;14.40;99.90;;;;;;5094928;28;20168;-74
2023/09/15 02:39:50;;;;;;;9.23;6.20;;;14.40;99.90;;;;;;5094207;28;20624;-73
2023/09/15 02:42:16;;;;;;;7.60;6.13;;;14.40;99.90;;;;;;5094986;28;20171;-73
2023/09/15 02:44:44;;;;;;;10.67;6.53;;;14.40;99.90;;;;;;5094585;28;20176;-73
2023/09/15 02:47:10;;;;;;;7.47;5.83;;;14.40;99.90;;;;;;5094725;28;20164;-73
2023/09/15 02:49:36;;;;;;;6.93;5.97;;;14.40;99.90;;;;;;5094670;28;20190;-73
2023/09/15 02:52:01;;;;;;;7.57;6.30;;;14.40;99.90;;;;;;5093536;28;20259;-73
2023/09/15 02:54:28;;;;;;;9.37;6.07;;;14.40;99.90;;;;;;5093948;28;20697;-73
2023/09/15 02:56:54;;;;;;;7.63;6.17;;;14.40;99.90;;;;;;5094252;28;20176;-74
2023/09/15 02:59:20;;;;;;;7.57;5.90;;;14.40;99.90;;;;;;5094473;28;20184;-73
2023/09/15 03:01:45;;;;;;;8.53;6.50;;;14.30;99.90;;;;;;5093044;28;20168;-73
2023/09/15 03:04:11;;;;;;;7.93;6.43;;;14.30;99.90;;;;;;5094295;28;20176;-74
2023/09/15 03:06:39;;;;;;;6.90;6.30;;;14.30;99.90;;;;;;5094339;28;20225;-74
2023/09/15 03:09:06;;;;;;;8.27;6.47;;;14.20;99.90;;;;;;5092852;28;20180;-74
2023/09/15 03:11:31;;;;;;;7.27;6.40;;;14.20;99.90;;;;;;5094321;28;20175;-74
2023/09/15 03:13:57;;;;;;;6.87;6.27;;;14.10;99.90;;;;;;5093896;28;20223;-74
2023/09/15 03:16:23;;;;;;;9.23;6.33;;;14.10;99.90;;;;;;5094386;28;20263;-75
2023/09/15 03:18:49;;;;;;;7.07;6.37;;;14.00;99.90;;;;;;5093931;28;20223;-74
2023/09/15 03:21:15;;;;;;;10.57;6.67;;;14.00;99.90;;;;;;5093580;28;20168;-73
2023/09/15 03:23:40;;;;;;;10.47;7.17;;;14.10;99.90;;;;;;5093444;28;20187;-74
2023/09/15 03:26:06;;;;;;;8.07;6.90;;;14.10;99.90;;;;;;5094098;28;20207;-74
2023/09/15 03:28:33;;;;;;;9.93;6.43;;;14.00;99.90;;;;;;5094199;28;20176;-73
2023/09/15 03:31:00;;;;;;;16.43;7.87;;;14.00;99.90;;;;;;5093933;28;20189;-74
2023/09/15 03:33:27;;;;;;;7.80;7.00;;;13.90;99.90;;;;;;5093236;28;20295;-74
2023/09/15 03:35:52;;;;;;;9.37;6.83;;;13.90;99.90;;;;;;5093619;28;20623;-74
2023/09/15 03:38:18;;;;;;;9.27;7.33;;;13.90;99.90;;;;;;5093176;28;20271;-74
2023/09/15 03:40:44;;;;;;;8.37;7.47;;;14.00;99.90;;;;;;5093630;28;20627;-74
2023/09/15 03:43:10;;;;;;;9.27;7.20;;;13.90;99.90;;;;;;5093598;28;20611;-74
2023/09/15 03:45:35;;;;;;;10.40;7.50;;;13.90;99.90;;;;;;5093178;28;20180;-74
2023/09/15 03:48:01;;;;;;;8.70;7.67;;;13.90;99.90;;;;;;5093449;28;20172;-74
2023/09/15 03:50:26;;;;;;;7.53;6.60;;;14.00;99.90;;;;;;5093362;28;20244;-73
2023/09/15 03:52:52;;;;;;;8.93;7.37;;;13.90;99.90;;;;;;5092518;28;20267;-75
2023/09/15 03:55:19;;;;;;;8.40;7.23;;;13.90;99.90;;;;;;5092719;28;20254;-73
2023/09/15 03:57:44;;;;;;;8.27;6.93;;;13.80;99.90;;;;;;5093703;28;20163;-73
2023/09/15 04:00:17;;;;;;;14.37;7.93;;;13.80;99.90;;;;;;5093364;28;20675;-73
2023/09/15 04:02:43;;;;;;;12.70;7.77;;;13.80;99.90;;;;;;5093454;28;20233;-74
2023/09/15 04:05:10;;;;;;;12.07;8.00;;;13.80;99.90;;;;;;5092838;28;20175;-72
2023/09/15 04:07:37;;;;;;;12.53;7.53;;;13.80;99.90;;;;;;5092996;28;20258;-73
2023/09/15 04:10:04;;;;;;;8.87;7.47;;;13.70;99.90;;;;;;5093000;28;20191;-73
2023/09/15 04:12:30;;;;;;;10.70;7.90;;;13.70;99.90;;;;;;5092689;28;20214;-73
2023/09/15 04:14:55;;;;;;;9.63;7.30;;;13.80;99.90;;;;;;5092612;28;20239;-74
2023/09/15 04:17:21;;;;;;;14.30;8.00;;;13.70;99.90;;;;;;5093017;28;20176;-74
2023/09/15 04:19:47;;;;;;;10.43;8.27;;;13.70;99.90;;;;;;5092739;28;20788;-74
2023/09/15 04:22:13;;;;;;;11.47;7.80;;;13.70;99.90;;;;;;5092371;28;20183;-74
2023/09/15 04:24:38;;;;;;;11.07;8.60;;;13.70;99.90;;;;;;5092890;28;20179;-74
2023/09/15 04:27:04;;;;;;;10.40;8.60;;;13.70;99.90;;;;;;5092483;28;20222;-74
2023/09/15 04:29:30;;;;;;;14.50;8.27;;;13.60;99.90;;;;;;5093030;28;20179;-74
2023/09/15 04:31:56;;;;;;;11.17;7.73;;;13.60;99.90;;;;;;5092491;28;20198;-74
2023/09/15 04:34:21;;;;;;;12.43;8.60;;;13.60;99.90;;;;;;5092176;28;20561;-74
2023/09/15 04:36:47;;;;;;;11.93;8.87;;;13.60;99.90;;;;;;5091130;28;20211;-72
2023/09/15 04:39:13;;;;;;;15.83;9.03;;;13.60;99.90;;;;;;5092791;28;20636;-72
2023/09/15 04:41:39;;;;;;;18.57;9.20;;;13.60;99.90;;;;;;5092453;28;20175;-72
2023/09/15 04:44:05;;;;;;;15.67;8.93;;;13.60;99.90;;;;;;5092611;28;20255;-73
2023/09/15 04:46:31;;;;;;;15.97;8.83;;;13.60;99.90;;;;;;5092753;28;20218;-74
2023/09/15 04:48:57;;;;;;;13.73;8.23;;;13.60;99.90;;;;;;5091876;28;20221;-73
2023/09/15 04:51:22;;;;;;;13.63;8.73;;;13.50;99.90;;;;;;5092504;28;20207;-74
2023/09/15 04:53:48;;;;;;;13.90;9.37;;;13.50;99.90;;;;;;5092222;28;20200;-74
2023/09/15 04:56:13;;;;;;;18.27;9.43;;;13.40;99.90;;;;;;5093049;28;20241;-74
2023/09/15 04:58:39;;;;;;;12.50;9.07;;;13.50;99.90;;;;;;5096482;28;20187;-74
2023/09/15 05:01:05;;;;;;;15.93;9.50;;;13.50;99.90;;;;;;5096150;28;20237;-74
2023/09/15 05:03:30;;;;;;;15.03;9.30;;;13.50;99.90;;;;;;5095472;28;20182;-74
2023/09/15 05:05:56;;;;;;;14.77;8.73;;;13.50;99.90;;;;;;5094813;28;20446;-73
2023/09/15 05:08:22;;;;;;;13.23;8.40;;;13.50;99.90;;;;;;5095804;28;20527;-74
2023/09/15 05:10:49;;;;;;;15.57;9.13;;;13.60;99.90;;;;;;5096017;28;20195;-74
2023/09/15 05:13:14;;;;;;;17.73;9.57;;;13.60;99.90;;;;;;5095726;28;20175;-73
2023/09/15 05:15:40;;;;;;;19.33;10.80;;;13.70;99.90;;;;;;5095895;28;20216;-73
2023/09/15 05:18:06;;;;;;;20.50;9.20;;;13.70;99.90;;;;;;5095191;28;20615;-73
2023/09/15 05:20:32;;;;;;;20.43;10.13;;;13.80;99.90;;;;;;5095479;28;20297;-73
2023/09/15 05:22:58;;;;;;;21.43;10.80;;;13.70;99.90;;;;;;5095602;28;20168;-73
2023/09/15 05:25:23;;;;;;;24.60;11.30;;;13.80;99.90;;;;;;5095391;28;20168;-73
2023/09/15 05:27:49;;;;;;;26.70;11.27;;;13.80;99.90;;;;;;5095507;28;20188;-73
2023/09/15 05:30:15;;;;;;;32.97;11.00;;;13.90;99.90;;;;;;5095380;28;20560;-73
2023/09/15 05:32:41;;;;;;;24.73;10.40;;;13.90;99.90;;;;;;5094963;28;20203;-73
2023/09/15 05:35:10;;;;;;;29.60;11.67;;;14.00;99.90;;;;;;5094756;28;20288;-74
2023/09/15 05:37:36;;;;;;;31.93;10.93;;;14.10;99.90;;;;;;5095395;28;20179;-72
2023/09/15 05:40:02;;;;;;;30.70;10.93;;;14.30;99.90;;;;;;5095402;28;20167;-73
2023/09/15 05:42:28;;;;;;;24.20;10.67;;;14.60;99.90;;;;;;5095401;28;20546;-74
2023/09/15 05:44:54;;;;;;;21.83;9.57;;;15.00;99.90;;;;;;5095009;28;20171;-74
2023/09/15 05:47:21;;;;;;;19.20;9.47;;;15.50;99.90;;;;;;5094472;28;20179;-75
2023/09/15 05:49:47;;;;;;;28.03;9.63;;;16.00;99.90;;;;;;5093277;28;20168;-75
2023/09/15 05:52:13;;;;;;;20.23;8.47;;;16.50;99.90;;;;;;5094016;28;20171;-74
2023/09/15 05:54:38;;;;;;;27.07;9.33;;;16.80;99.90;;;;;;5094639;28;20553;-76
2023/09/15 05:57:04;;;;;;;29.67;8.97;;;16.90;93.70;;;;;;5093619;28;20179;-75
2023/09/15 05:59:30;;;;;;;25.83;8.47;;;17.20;89.60;;;;;;5094598;28;20168;-74
2023/09/15 06:01:56;;;;;;;26.27;8.73;;;17.30;75.00;;;;;;5093782;28;20663;-75
2023/09/15 06:04:22;;;;;;;22.80;8.55;;;17.20;71.80;;;;;;5094745;28;20653;-74
2023/09/15 06:06:48;;;;;;;28.63;8.98;;;17.40;74.20;;;;;;5093393;28;20172;-75
2023/09/15 06:09:14;;;;;;;29.33;8.10;;;17.90;60.60;;;;;;5094485;28;20195;-74
2023/09/15 06:11:39;;;;;;;26.58;8.23;;;18.20;41.40;;;;;;5094804;28;20522;-75
2023/09/15 06:14:05;;;;;;;29.65;8.05;;;18.20;35.20;;;;;;5094195;28;20242;-75
2023/09/15 06:16:34;;;;;;;23.70;8.23;;;18.40;32.90;;;;;;5093800;28;20237;-74
2023/09/15 06:19:01;;;;;;;20.08;7.88;;;18.70;26.90;;;;;;5094158;28;20204;-75
2023/09/15 06:21:26;;;;;;;28.75;9.02;;;18.90;18.70;;;;;;5093936;28;20265;-76
2023/09/15 06:23:52;;;;;;;29.95;9.45;;;19.00;14.50;;;;;;5093445;28;20309;-75
2023/09/15 06:26:17;;;;;;;35.15;8.90;;;19.30;16.10;;;;;;5094238;28;20535;-76
2023/09/15 06:28:43;;;;;;;50.50;10.88;;;19.50;4.00;;;;;;5094484;28;20223;-75
2023/09/15 06:31:09;;;;;;;38.60;9.77;;;19.60;4.70;;;;;;5093464;28;20200;-75
2023/09/15 06:33:35;;;;;;;41.22;9.13;;;20.00;1.00;;;;;;5091980;28;20309;-76
2023/09/15 06:36:01;;;;;;;19.73;7.38;;;21.10;1.00;;;;;;5094403;28;20179;-77
2023/09/15 06:38:27;;;;;;;21.65;7.85;;;22.30;1.00;;;;;;5093774;28;20160;-76
2023/09/15 06:40:53;;;;;;;20.20;7.38;;;23.60;1.00;;;;;;5093374;28;20171;-75
2023/09/15 06:43:18;;;;;;;27.80;7.15;;;24.70;1.00;;;;;;5093796;28;20313;-78
2023/09/15 06:45:44;;;;;;;45.67;9.65;;;25.00;2.80;;;;;;5093347;28;20168;-77
2023/09/15 06:48:11;;;;;;;65.53;12.43;;;25.00;99.90;;;;;;5093905;28;20578;-78
2023/09/15 06:50:36;;;;;;;9.82;5.93;;;25.00;1.00;;;;;;5093571;28;20239;-78
2023/09/15 06:53:02;;;;;;;16.67;6.47;;;24.40;1.00;;;;;;5092583;28;20225;-80
2023/09/15 06:55:28;;;;;;;20.38;7.10;;;24.30;1.00;;;;;;5093126;28;20233;-77
2023/09/15 06:57:54;;;;;;;18.90;7.15;;;25.70;99.90;;;;;;5092301;28;20164;-77
2023/09/15 07:00:19;;;;;;;22.98;7.32;;;27.00;99.90;;;;;;5093057;28;20573;-76
2023/09/15 07:02:45;;;;;;;20.60;7.03;;;28.00;99.90;;;;;;5093833;28;20274;-76
2023/09/15 07:05:11;;;;;;;21.70;7.13;;;29.80;1.00;;;;;;5092817;28;20176;-76
2023/09/15 07:07:37;;;;;;;30.35;7.90;;;30.50;1.00;;;;;;5093306;28;20176;-76
2023/09/15 07:10:04;;;;;;;26.77;7.22;;;31.50;1.00;;;;;;5092071;28;20195;-76
2023/09/15 07:12:30;;;;;;;19.67;6.97;;;31.80;1.00;;;;;;5093700;28;20172;-77
2023/09/15 07:14:56;;;;;;;26.33;6.72;;;30.90;1.00;;;;;;5092282;28;20204;-77
2023/09/15 07:17:22;;;;;;;19.65;6.63;;;31.00;1.00;;;;;;5093676;28;20199;-77
2023/09/15 07:19:47;;;;;;;20.13;7.07;;;31.60;1.00;;;;;;5092280;28;20657;-78
2023/09/15 07:22:13;;;;;;;23.15;6.47;;;33.00;99.90;;;;;;5093206;28;20203;-77
2023/09/15 07:24:41;;;;;;;14.32;6.50;;;31.80;99.90;;;;;;5092643;28;20183;-79
2023/09/15 07:27:10;;;;;;;20.48;6.35;;;33.20;99.90;;;;;;5093015;28;20274;-78
2023/09/15 07:29:37;;;;;;;21.77;6.53;;;33.30;99.90;;;;;;5091391;28;20176;-79
2023/09/15 07:32:03;;;;;;;19.83;6.72;;;33.80;99.90;;;;;;5092951;28;20179;-79
2023/09/15 07:34:29;;;;;;;17.00;6.97;;;34.60;99.90;;;;;;5093029;28;20203;-80
2023/09/15 07:36:54;;;;;;;12.05;5.88;;;35.40;99.90;;;;;;5092039;28;20171;-81
2023/09/15 07:39:20;;;;;;;11.65;5.65;;;35.20;99.90;;;;;;5092388;28;20301;-79
2023/09/15 07:41:45;;;;;;;10.88;5.10;;;34.90;99.90;;;;;;5093179;28;20195;-83
2023/09/15 07:44:13;;;;;;;9.50;5.13;;;34.90;99.90;;;;;;5091802;28;20178;-77
2023/09/15 07:46:39;;;;;;;14.38;5.43;;;35.10;99.90;;;;;;5092629;28;20254;-80
2023/09/15 07:49:05;;;;;;;12.27;4.82;;;35.20;99.90;;;;;;5091524;28;20262;-78
2023/09/15 07:51:32;;;;;;;13.18;5.18;;;35.80;99.90;;;;;;5092914;28;20171;-78
2023/09/15 07:53:58;;;;;;;9.00;4.55;;;35.90;99.90;;;;;;5092501;28;20674;-80
2023/09/15 07:56:24;;;;;;;12.52;5.10;;;35.90;99.90;;;;;;5092842;28;20175;-78
2023/09/15 07:58:50;;;;;;;7.45;4.90;;;35.70;99.90;;;;;;5092548;28;20167;-82
2023/09/15 08:01:15;;;;;;;8.35;4.88;;;36.10;99.90;;;;;;5091479;28;20673;-78
2023/09/15 08:03:41;;;;;;;12.70;4.80;;;36.10;99.90;;;;;;5092663;28;20573;-78
2023/09/15 08:06:08;;;;;;;7.45;4.43;;;35.80;99.90;;;;;;5093216;28;20635;-77
2023/09/15 08:08:34;;;;;;;9.38;4.75;;;35.70;99.90;;;;;;5092861;28;20300;-77
2023/09/15 08:11:00;;;;;;;8.60;4.43;;;35.40;99.90;;;;;;5092071;28;20172;-76
2023/09/15 08:13:26;;;;;;;11.43;5.00;;;35.70;99.90;;;;;;5091719;28;20281;-79
2023/09/15 08:15:52;;;;;;;11.95;4.78;;;35.00;99.90;;;;;;5092563;28;20175;-81
2023/09/15 08:18:23;;;;;;;11.38;4.70;;;34.30;99.90;;;;;;5092507;28;20182;-79
2023/09/15 08:20:49;;;;;;;10.18;3.97;;;33.40;99.90;;;;;;5092532;28;20751;-79
2023/09/15 08:23:15;;;;;;;10.82;4.88;;;33.80;99.90;;;;;;5092097;28;20171;-80
2023/09/15 08:25:42;;;;;;;14.15;4.60;;;33.30;99.90;;;;;;5091918;28;20684;-78
2023/09/15 08:28:08;;;;;;;11.25;4.22;;;33.10;99.90;;;;;;5092702;28;20167;-78
2023/09/15 08:30:35;;;;;;;11.25;4.22;;;33.20;99.90;;;;;;5093000;28;20168;-78
2023/09/15 08:33:02;;;;;;;12.10;4.22;;;34.10;99.90;;;;;;5096675;28;20160;-78
2023/09/15 08:35:28;;;;;;;9.02;3.95;;;34.00;99.90;;;;;;5096892;28;20206;-77
2023/09/15 08:37:54;;;;;;;10.60;4.00;;;33.30;99.90;;;;;;5096393;28;20175;-77
2023/09/15 08:40:20;;;;;;;10.13;4.78;;;33.20;99.90;;;;;;5096282;28;20172;-77
2023/09/15 08:42:46;;;;;;;15.45;4.50;;;33.80;99.90;;;;;;5095896;28;20521;-76
2023/09/15 08:45:13;;;;;;;19.13;5.07;;;34.30;99.90;;;;;;5095142;28;20209;-75
2023/09/15 08:47:42;;;;;;;16.88;4.78;;;34.80;99.90;;;;;;5096094;28;20203;-77
2023/09/15 08:50:09;;;;;;;15.43;4.25;;;34.20;99.90;;;;;;5096598;28;20178;-77
2023/09/15 08:52:36;;;;;;;11.43;4.30;;;33.50;99.90;;;;;;5096341;28;20552;-77
2023/09/15 08:55:03;;;;;;;13.15;4.25;;;33.70;99.90;;;;;;5096044;28;20203;-77
2023/09/15 08:57:30;;;;;;;10.90;4.18;;;34.40;99.90;;;;;;5095919;28;20172;-78
2023/09/15 08:59:57;;;;;;;10.85;4.20;;;34.40;99.90;;;;;;5096368;28;20175;-80
2023/09/15 09:02:24;;;;;;;16.95;4.63;;;34.70;99.90;;;;;;5096671;28;20257;-78
2023/09/15 09:04:52;;;;;;;10.55;4.13;;;34.50;99.90;;;;;;5095697;28;20213;-78
2023/09/15 09:07:21;;;;;;;11.93;3.78;;;34.10;99.90;;;;;;5096156;28;20614;-78
2023/09/15 09:09:48;;;;;;;8.75;3.95;;;34.20;99.90;;;;;;5095907;28;20281;-79
2023/09/15 09:12:14;;;;;;;4.90;2.92;;;33.90;99.90;;;;;;5095551;28;20183;-78
2023/09/15 09:14:40;;;;;;;2.55;2.22;;;32.90;99.90;;;;;;5095979;28;20206;-77
2023/09/15 09:17:08;;;;;;;2.90;2.58;;;31.60;99.90;;;;;;5094922;28;20198;-77
2023/09/15 09:19:38;;;;;;;2.60;2.40;;;31.30;99.90;;;;;;5095894;28;20248;-77
2023/09/15 09:22:07;;;;;;;3.10;2.72;;;30.90;99.90;;;;;;5095565;28;20172;-75
2023/09/15 09:24:34;;;;;;;2.60;2.40;;;30.10;99.90;;;;;;5094908;28;20240;-77
2023/09/15 09:26:59;;;;;;;4.03;2.10;;;29.20;99.90;;;;;;5095954;28;20194;-79
2023/09/15 09:29:31;;;;;;;4.53;2.40;;;29.50;1.00;;;;;;5095644;28;20744;-77
2023/09/15 09:31:57;;;;;;;4.45;2.10;;;29.80;1.00;;;;;;5095258;28;20236;-77
2023/09/15 09:34:24;;;;;;;2.80;2.45;;;30.40;99.90;;;;;;5095543;28;20282;-73
2023/09/15 09:36:51;;;;;;;2.75;2.47;;;28.50;1.00;;;;;;5095344;28;20171;-75
2023/09/15 09:39:16;;;;;;;2.40;2.20;;;28.40;1.00;;;;;;5095177;28;20237;-76
2023/09/15 09:41:44;;;;;;;2.55;2.35;;;29.70;1.00;;;;;;5093264;28;20640;-76
2023/09/15 09:44:12;;;;;;;4.43;2.33;;;30.00;1.00;;;;;;5095675;28;20180;-78
2023/09/15 09:46:40;;;;;;;2.30;2.00;;;30.70;1.00;;;;;;5095832;28;20172;-78
2023/09/15 09:49:06;;;;;;;2.15;1.98;;;31.50;99.90;;;;;;5095074;28;20168;-77
2023/09/15 09:51:35;;;;;;;5.35;2.28;;;32.20;99.90;;;;;;5095283;28;20176;-75
2023/09/15 09:54:01;;;;;;;2.63;2.05;;;31.60;99.90;;;;;;5094407;28;20207;-74
2023/09/15 09:56:26;;;;;;;1.92;1.83;;;30.60;99.90;;;;;;5094953;28;20259;-73
2023/09/15 09:58:52;;;;;;;7.28;6.55;;;30.40;99.90;;;;;;5095245;28;20514;-74
2023/09/15 10:01:18;;;;;;;4.13;3.72;;;28.60;1.00;;;;;;5094778;28;20178;-75
2023/09/15 10:03:44;;;;;;;5.40;2.78;;;28.10;99.90;;;;;;5094956;28;20229;-76
2023/09/15 10:06:10;;;;;;;4.30;2.25;;;29.30;1.00;;;;;;5095437;28;20172;-78
2023/09/15 10:08:39;;;;;;;4.93;2.20;;;30.50;1.00;;;;;;5094402;28;20172;-76
2023/09/15 10:11:06;;;;;;;4.45;2.53;;;31.00;1.00;;;;;;5094908;28;20167;-78
2023/09/15 10:13:32;;;;;;;2.15;1.98;;;31.20;99.90;;;;;;5094861;28;20195;-79
2023/09/15 10:15:58;;;;;;;3.72;2.20;;;31.10;99.90;;;;;;5094498;28;20623;-74
2023/09/15 10:18:24;;;;;;;2.30;2.10;;;29.70;1.00;;;;;;5094528;28;20176;-76
2023/09/15 10:20:54;;;;;;;2.33;2.13;;;29.00;1.00;;;;;;5094955;28;20230;-75
2023/09/15 10:23:19;;;;;;;5.28;2.40;;;28.90;1.00;;;;;;5094246;28;20187;-75
2023/09/15 10:25:50;;;;;;;2.88;2.10;;;29.10;1.00;;;;;;5094338;28;20623;-75
2023/09/15 10:28:19;;;;;;;2.17;1.98;;;28.60;55.00;;;;;;5094174;28;20245;-74
2023/09/15 10:30:45;;;;;;;2.95;2.42;;;28.10;99.90;;;;;;5094443;28;20164;-74
2023/09/15 10:33:12;;;;;;;2.00;1.90;;;27.50;1.00;;;;;;5094315;28;20172;-73
2023/09/15 10:35:45;;;;;;;2.75;2.55;;;27.90;99.90;;;;;;5093341;28;20352;-76
2023/09/15 10:38:10;;;;;;;3.58;2.83;;;27.90;99.90;;;;;;5093596;28;20164;-72
2023/09/15 10:40:49;;;;;;;7.38;6.75;;;27.90;99.90;;;;;;5094436;28;20175;-74
2023/09/15 10:43:18;;;;;;;5.60;5.10;;;27.00;99.90;;;;;;5093853;28;20171;-73
2023/09/15 10:45:58;;;;;;;4.72;2.30;;;27.00;1.00;;;;;;5092572;28;20175;-74
2023/09/15 10:48:42;;;;;;;2.83;2.63;;;27.30;1.00;;;;;;5093863;28;20168;-74
2023/09/15 10:51:09;;;;;;;3.15;2.92;;;27.00;99.90;;;;;;5093932;28;20228;-74
2023/09/15 10:53:49;;;;;;;4.82;3.00;;;27.70;1.00;;;;;;5092540;28;20234;-73
2023/09/15 10:56:17;;;;;;;2.60;2.40;;;27.60;99.90;;;;;;5093761;28;20194;-74
2023/09/15 10:58:46;;;;;;;2.92;2.72;;;28.60;99.90;;;;;;5093763;28;20179;-74
2023/09/15 11:01:13;;;;;;;2.20;2.00;;;28.00;2.30;;;;;;5093483;28;20572;-74
2023/09/15 11:03:39;;;;;;;2.55;2.17;;;28.00;99.90;;;;;;5093449;28;20166;-72
2023/09/15 11:06:09;;;;;;;2.85;2.53;;;28.10;1.00;;;;;;5093120;28;20293;-73
2023/09/15 11:08:35;;;;;;;3.17;2.97;;;28.00;99.90;;;;;;5093894;28;20180;-73
2023/09/15 11:11:04;;;;;;;4.63;2.10;;;27.40;99.90;;;;;;5093291;28;20179;-72
2023/09/15 11:13:31;;;;;;;2.30;1.98;;;27.80;99.90;;;;;;5093496;28;20160;-73
2023/09/15 11:15:56;;;;;;;3.22;2.13;;;28.00;99.90;;;;;;5092116;28;20214;-75
2023/09/15 11:18:22;;;;;;;2.95;2.75;;;28.30;34.00;;;;;;5091875;28;20176;-74
2023/09/15 11:20:48;;;;;;;2.83;2.60;;;27.30;99.90;;;;;;5093818;28;20627;-74
2023/09/15 11:23:17;;;;;;;3.72;3.42;;;27.20;1.00;;;;;;5093349;28;20164;-75
2023/09/15 11:25:46;;;;;;;3.55;2.30;;;27.20;1.00;;;;;;5092864;28;20176;-76
2023/09/15 11:28:15;;;;;;;3.10;2.50;;;27.60;1.00;;;;;;5093178;28;20172;-75
2023/09/15 11:30:42;;;;;;;8.20;7.30;;;28.10;1.00;;;;;;5092833;28;20168;-75
2023/09/15 11:33:08;;;;;;;3.03;2.15;;;26.70;1.00;;;;;;5093134;28;20176;-74
2023/09/15 11:35:34;;;;;;;2.45;2.22;;;26.70;1.00;;;;;;5092476;28;20222;-77
2023/09/15 11:38:02;;;;;;;2.00;1.90;;;27.40;39.70;;;;;;5092804;28;20254;-76
2023/09/15 11:40:28;;;;;;;2.22;2.10;;;26.50;1.00;;;;;;5092643;28;20176;-74
2023/09/15 11:42:56;;;;;;;2.85;2.70;;;26.30;1.00;;;;;;5091541;28;20220;-74
2023/09/15 11:45:26;;;;;;;4.68;2.30;;;26.50;1.00;;;;;;5092853;28;20168;-73
2023/09/15 11:47:53;;;;;;;4.13;2.42;;;26.70;99.90;;;;;;5092667;28;20174;-72
2023/09/15 11:50:19;;;;;;;2.60;2.15;;;26.90;99.90;;;;;;5092636;28;20171;-74
2023/09/15 11:52:44;;;;;;;5.55;2.80;;;27.20;97.80;;;;;;5092475;28;20224;-72
2023/09/15 11:55:21;;;;;;;2.70;2.50;;;27.60;1.00;;;;;;5093054;28;20218;-71
2023/09/15 11:57:47;;;;;;;2.75;2.55;;;26.80;1.00;;;;;;5093204;28;20175;-73
2023/09/15 12:00:15;;;;;;;2.70;2.47;;;26.50;99.90;;;;;;5092407;28;20180;-72
2023/09/15 12:02:43;;;;;;;4.25;3.17;;;26.70;1.00;;;;;;5092510;28;20175;-74
2023/09/15 12:05:09;;;;;;;3.05;2.63;;;26.50;1.00;;;;;;5092123;28;20175;-74
2023/09/15 12:07:36;;;;;;;2.97;2.45;;;26.60;99.90;;;;;;5093028;28;20527;-72
2023/09/15 12:10:05;;;;;;;6.95;5.22;;;27.10;99.90;;;;;;5092710;28;20164;-75
2023/09/15 12:12:31;;;;;;;2.88;2.30;;;27.70;1.00;;;;;;5092929;28;20171;-72
2023/09/15 12:15:01;;;;;;;3.85;2.60;;;27.20;99.90;;;;;;5092330;28;20231;-73
2023/09/15 12:17:34;;;;;;;2.55;2.35;;;26.70;1.00;;;;;;5092965;28;20176;-73
2023/09/15 12:20:02;;;;;;;2.63;2.42;;;25.90;1.00;;;;;;5091685;28;20695;-72
2023/09/15 12:22:38;;;;;;;5.00;3.63;;;25.30;99.90;;;;;;5091980;28;20168;-72
2023/09/15 12:25:04;;;;;;;2.40;2.20;;;25.50;99.90;;;;;;5092424;28;20176;-72
2023/09/15 12:27:30;;;;;;;2.28;2.08;;;25.70;99.90;;;;;;5092552;28;20222;-71
2023/09/15 12:30:03;;;;;;;3.40;2.25;;;25.50;4.50;;;;;;5091063;28;20228;-72
2023/09/15 12:32:31;;;;;;;2.50;2.30;;;25.80;1.00;;;;;;5092482;28;20160;-72
2023/09/15 12:34:57;;;;;;;3.60;2.28;;;25.90;99.90;;;;;;5090476;28;20211;-72
2023/09/15 12:37:27;;;;;;;2.50;2.28;;;26.20;1.00;;;;;;5092010;28;20195;-73
2023/09/15 12:39:52;;;;;;;3.47;3.17;;;26.40;99.90;;;;;;5092201;28;20263;-73
2023/09/15 12:42:18;;;;;;;2.60;2.40;;;26.10;1.00;;;;;;5092198;28;20297;-73